Time;durP1;ratioP1;P1;durP2;ratioP2;P2;SDS_P1;SDS_P2;PMS_P1;PMS_P2;Temp;Humidity;BMP_temperature;BMP_pressure;BME280_temperature;BME280_humidity;BME280_pressure;Samples;Min_cycle;Max_cycle;Signal;HPM_P1;HPM_P2
2021/05/10 00:02:06;;;;;;;;;;;;;;;14.09;42.20;99664.22;5137147;27;19992;-70
2021/05/10 00:04:35;;;;;;;;;;;;;;;14.08;42.23;99659.13;5136895;27;20022;-70
2021/05/10 00:07:08;;;;;;;;;;;;;;;14.25;41.77;99661.44;5137018;27;19923;-70
2021/05/10 00:09:36;;;;;;;;;;;;;;;14.35;40.67;99661.28;5134975;27;19927;-72
2021/05/10 00:12:06;;;;;;;;;;;;;;;14.26;41.27;99658.84;5135285;27;19950;-71
2021/05/10 00:14:41;;;;;;;;;;;;;;;14.23;41.40;99656.31;5136919;27;20299;-71
2021/05/10 00:17:15;;;;;;;;;;;;;;;14.16;41.81;99661.59;5135928;27;19923;-72
2021/05/10 00:19:43;;;;;;;;;;;;;;;14.21;41.33;99670.03;5135088;27;19924;-71
2021/05/10 00:22:14;;;;;;;;;;;;;;;14.39;40.33;99662.09;5136788;27;19930;-72
2021/05/10 00:24:46;;;;;;;;;;;;;;;14.75;39.50;99664.88;5136801;27;20021;-70
2021/05/10 00:27:15;;;;;;;;;;;;;;;14.88;39.08;99664.63;5117728;27;19931;-70
2021/05/10 00:29:46;;;;;;;;;;;;;;;15.12;38.20;99670.16;5134525;27;19923;-69
2021/05/10 00:32:17;;;;;;;;;;;;;;;15.18;38.55;99661.50;5136855;27;19938;-70
2021/05/10 00:34:55;;;;;;;;;;;;;;;15.28;38.56;99658.69;5135708;27;20009;-69
2021/05/10 00:37:26;;;;;;;;;;;;;;;15.42;38.20;99658.44;5136679;27;19971;-70
2021/05/10 00:39:55;;;;;;;;;;;;;;;15.52;38.46;99659.97;5133691;27;20353;-70
2021/05/10 00:42:26;;;;;;;;;;;;;;;15.60;38.40;99658.06;5136220;27;19927;-70
2021/05/10 00:44:58;;;;;;;;;;;;;;;15.56;38.67;99648.72;5136283;27;20261;-70
2021/05/10 00:47:29;;;;;;;;;;;;;;;15.58;38.50;99649.53;5136251;27;19927;-70
2021/05/10 00:49:58;;;;;;;;;;;;;;;15.61;38.62;99649.47;5133642;27;19930;-71
2021/05/10 00:52:26;;;;;;;;;;;;;;;15.66;38.80;99637.38;5135835;27;19924;-72
2021/05/10 00:54:55;;;;;;;;;;;;;;;15.69;39.14;99641.59;5135667;27;19931;-70
2021/05/10 00:57:30;;;;;;;;;;;;;;;15.71;39.09;99643.25;5136006;27;19923;-70
2021/05/10 00:59:58;;;;;;;;;;;;;;;15.72;39.36;99641.50;5134563;27;19976;-70
2021/05/10 01:02:30;;;;;;;;;;;;;;;15.78;39.51;99647.41;5135806;27;19976;-70
2021/05/10 01:05:02;;;;;;;;;;;;;;;15.76;39.37;99649.16;5135681;27;19924;-71
2021/05/10 01:07:31;;;;;;;;;;;;;;;15.69;39.97;99639.84;5135253;27;20018;-70
2021/05/10 01:09:59;;;;;;;;;;;;;;;15.67;40.30;99633.91;5128954;27;20258;-69
2021/05/10 01:12:31;;;;;;;;;;;;;;;15.75;40.32;99637.16;5116861;27;19959;-70
2021/05/10 01:14:59;;;;;;;;;;;;;;;15.74;40.52;99632.88;5114831;28;19928;-70
2021/05/10 01:17:27;;;;;;;;;;;;;;;15.74;40.48;99629.47;5127489;27;19927;-70
2021/05/10 01:19:55;;;;;;;;;;;;;;;15.75;40.51;99633.72;5121697;27;19930;-70
2021/05/10 01:22:23;;;;;;;;;;;;;;;15.77;40.55;99629.38;5120286;27;19972;-71
2021/05/10 01:24:53;;;;;;;;;;;;;;;15.79;40.62;99627.63;5134358;27;19931;-72
2021/05/10 01:27:21;;;;;;;;;;;;;;;15.83;40.60;99622.41;5135505;27;19923;-72
2021/05/10 01:29:49;;;;;;;;;;;;;;;15.93;40.57;99621.28;5133494;27;19984;-70
2021/05/10 01:32:17;;;;;;;;;;;;;;;15.91;40.42;99623.03;5135410;27;19981;-70
2021/05/10 01:34:47;;;;;;;;;;;;;;;15.87;40.51;99618.88;5135732;27;20365;-70
2021/05/10 01:37:18;;;;;;;;;;;;;;;15.84;40.54;99631.78;5135474;27;19945;-70
2021/05/10 01:39:46;;;;;;;;;;;;;;;15.96;40.10;99621.22;5133363;27;20051;-70
2021/05/10 01:42:15;;;;;;;;;;;;;;;15.96;39.99;99616.06;5134339;27;19947;-71
2021/05/10 01:44:47;;;;;;;;;;;;;;;15.92;40.21;99614.47;5126428;27;20285;-69
2021/05/10 01:47:18;;;;;;;;;;;;;;;15.91;40.09;99611.91;5114579;28;19954;-70
2021/05/10 01:49:49;;;;;;;;;;;;;;;15.85;40.48;99618.06;5114442;28;20362;-70
2021/05/10 01:52:18;;;;;;;;;;;;;;;15.83;40.24;99618.97;5114425;28;20018;-71
2021/05/10 01:54:49;;;;;;;;;;;;;;;15.79;40.24;99612.19;5114618;28;20363;-71
2021/05/10 01:57:22;;;;;;;;;;;;;;;15.80;40.62;99617.31;5114659;28;19927;-70
2021/05/10 01:59:52;;;;;;;;;;;;;;;15.73;40.88;99618.34;5123995;28;19930;-71
2021/05/10 02:02:21;;;;;;;;;;;;;;;15.71;40.84;99614.09;5135149;28;19929;-71
2021/05/10 02:04:59;;;;;;;;;;;;;;;15.68;40.97;99614.16;5135027;28;20060;-71
2021/05/10 02:07:31;;;;;;;;;;;;;;;15.77;40.99;99619.94;5137385;27;19931;-70
2021/05/10 02:10:02;;;;;;;;;;;;;;;15.84;40.85;99616.34;5136263;27;20380;-70
2021/05/10 02:12:30;;;;;;;;;;;;;;;15.83;40.79;99614.69;5137302;27;19923;-71
2021/05/10 02:15:03;;;;;;;;;;;;;;;15.78;40.75;99616.50;5138254;27;19923;-70
2021/05/10 02:17:31;;;;;;;;;;;;;;;15.71;41.33;99609.81;5139248;27;19961;-70
2021/05/10 02:20:03;;;;;;;;;;;;;;;15.69;40.46;99611.53;5136876;27;19985;-72
2021/05/10 02:22:31;;;;;;;;;;;;;;;15.68;40.49;99601.28;5139127;27;20441;-70
2021/05/10 02:24:59;;;;;;;;;;;;;;;15.67;40.34;99604.78;5139011;27;20333;-69
2021/05/10 02:27:31;;;;;;;;;;;;;;;15.65;40.38;99599.63;5139237;27;19927;-70
2021/05/10 02:30:00;;;;;;;;;;;;;;;15.64;40.35;99592.81;5114010;28;20014;-69
2021/05/10 02:32:28;;;;;;;;;;;;;;;15.64;40.71;99595.38;5118880;27;19931;-70
2021/05/10 02:34:56;;;;;;;;;;;;;;;15.65;40.11;99589.34;5118430;28;19964;-70
2021/05/10 02:37:24;;;;;;;;;;;;;;;15.69;40.52;99593.53;5118230;28;19924;-70
2021/05/10 02:39:55;;;;;;;;;;;;;;;15.65;40.37;99589.34;5099723;27;20327;-70
2021/05/10 02:42:26;;;;;;;;;;;;;;;15.61;40.65;99585.16;5117973;28;19923;-71
2021/05/10 02:44:57;;;;;;;;;;;;;;;15.60;40.56;99586.03;5118143;28;19924;-71
2021/05/10 02:47:25;;;;;;;;;;;;;;;15.60;40.62;99570.59;5117760;28;19963;-70
2021/05/10 02:49:57;;;;;;;;;;;;;;;15.59;40.92;99578.34;5120554;27;19924;-70
2021/05/10 02:52:24;;;;;;;;;;;;;;;15.58;40.56;99582.66;5138501;27;19945;-72
2021/05/10 02:55:02;;;;;;;;;;;;;;;15.55;40.66;99567.28;5121168;27;19930;-71
2021/05/10 02:57:34;;;;;;;;;;;;;;;15.55;41.03;99571.59;5138695;27;19930;-70
2021/05/10 03:00:07;;;;;;;;;;;;;;;15.58;41.31;99576.66;5136147;27;19948;-71
2021/05/10 03:02:36;;;;;;;;;;;;;;;15.54;41.08;99570.75;5138294;27;19930;-71
2021/05/10 03:05:08;;;;;;;;;;;;;;;15.55;41.12;99575.00;5138368;27;19924;-71
2021/05/10 03:07:37;;;;;;;;;;;;;;;15.54;41.10;99570.75;5137022;27;19972;-71
2021/05/10 03:10:06;;;;;;;;;;;;;;;15.58;41.09;99566.38;5133127;27;19931;-71
2021/05/10 03:12:34;;;;;;;;;;;;;;;15.61;41.19;99569.72;5123517;27;19923;-71
2021/05/10 03:15:08;;;;;;;;;;;;;;;15.64;41.16;99567.09;5138063;27;19929;-71
2021/05/10 03:17:37;;;;;;;;;;;;;;;15.59;41.47;99563.78;5132077;27;19930;-72
2021/05/10 03:20:06;;;;;;;;;;;;;;;15.62;41.23;99562.84;5132861;27;20006;-71
2021/05/10 03:22:37;;;;;;;;;;;;;;;15.60;41.32;99557.72;5117521;28;19972;-71
2021/05/10 03:25:08;;;;;;;;;;;;;;;15.57;41.63;99562.97;5117119;28;20387;-71
2021/05/10 03:27:40;;;;;;;;;;;;;;;15.59;41.57;99566.34;5117577;28;19924;-70
2021/05/10 03:30:11;;;;;;;;;;;;;;;15.59;41.62;99570.63;5120081;27;20359;-71
2021/05/10 03:32:43;;;;;;;;;;;;;;;15.65;41.65;99570.47;5137744;27;20018;-71
2021/05/10 03:35:11;;;;;;;;;;;;;;;15.69;41.12;99565.22;5137686;27;19923;-70
2021/05/10 03:37:40;;;;;;;;;;;;;;;15.72;41.58;99564.31;5137528;27;19931;-72
2021/05/10 03:40:09;;;;;;;;;;;;;;;15.78;41.38;99569.34;5135428;27;19935;-71
2021/05/10 03:42:40;;;;;;;;;;;;;;;15.77;41.31;99573.63;5137457;27;20006;-71
2021/05/10 03:45:14;;;;;;;;;;;;;;;15.80;41.28;99565.84;5137349;27;19963;-71
2021/05/10 03:47:43;;;;;;;;;;;;;;;15.82;41.29;99556.34;5137363;27;19923;-71
2021/05/10 03:50:13;;;;;;;;;;;;;;;15.88;41.21;99560.50;5135587;27;19931;-71
2021/05/10 03:52:41;;;;;;;;;;;;;;;15.89;41.25;99563.03;5116666;28;20018;-71
2021/05/10 03:55:14;;;;;;;;;;;;;;;15.96;41.23;99563.72;5121026;27;19923;-71
2021/05/10 03:57:45;;;;;;;;;;;;;;;16.04;41.17;99567.81;5136279;27;19930;-71
2021/05/10 04:00:16;;;;;;;;;;;;;;;16.16;40.73;99570.97;5119389;27;19959;-70
2021/05/10 04:02:47;;;;;;;;;;;;;;;16.17;40.59;99570.09;5135678;27;19923;-71
2021/05/10 04:05:34;;;;;;;;;;;;;;;16.22;40.53;99565.69;5137231;27;19966;-71
2021/05/10 04:08:06;;;;;;;;;;;;;;;16.30;40.22;99568.88;5137046;27;19962;-72
2021/05/10 04:15:50;;;;;;;;;;;;;;;16.43;40.07;99576.28;5114147;28;20394;-71
2021/05/10 04:18:18;;;;;;;;;;;;;;;16.53;39.84;99571.75;5097982;28;19962;-71
2021/05/10 04:20:46;;;;;;;;;;;;;;;16.63;39.73;99578.34;5116128;28;19923;-72
2021/05/10 04:23:16;;;;;;;;;;;;;;;16.77;39.13;99560.78;5115844;27;19966;-71
2021/05/10 04:25:45;;;;;;;;;;;;;;;16.87;39.13;99569.94;5115805;28;20385;-71
2021/05/10 04:28:13;;;;;;;;;;;;;;;16.97;38.75;99563.63;5116280;28;19923;-72
2021/05/10 04:30:41;;;;;;;;;;;;;;;17.04;38.70;99565.16;5116196;27;19924;-71
2021/05/10 04:33:10;;;;;;;;;;;;;;;17.13;38.60;99570.03;5115890;28;19924;-73
2021/05/10 04:35:38;;;;;;;;;;;;;;;17.20;38.71;99561.22;5135303;27;20384;-71
2021/05/10 04:38:08;;;;;;;;;;;;;;;17.28;37.91;99564.44;5136650;27;19923;-72
2021/05/10 04:40:37;;;;;;;;;;;;;;;17.38;37.65;99563.28;5136365;27;19972;-71
2021/05/10 04:43:07;;;;;;;;;;;;;;;17.44;38.01;99550.19;5136060;27;20038;-71
2021/05/10 04:45:36;;;;;;;;;;;;;;;17.54;37.71;99539.63;5134243;27;19976;-71
2021/05/10 04:48:05;;;;;;;;;;;;;;;17.63;37.51;99545.34;5135291;27;20403;-73
2021/05/10 04:50:34;;;;;;;;;;;;;;;17.71;37.29;99560.56;5136043;27;19985;-68
2021/05/10 04:53:10;;;;;;;;;;;;;;;17.74;37.46;99556.16;5135959;27;19958;-70
2021/05/10 04:55:38;;;;;;;;;;;;;;;17.82;37.37;99555.94;5098981;27;19934;-71
2021/05/10 04:58:06;;;;;;;;;;;;;;;17.90;37.31;99554.78;5135937;27;20284;-72
2021/05/10 05:00:35;;;;;;;;;;;;;;;17.94;37.43;99561.53;5135943;27;19962;-70
2021/05/10 05:03:04;;;;;;;;;;;;;;;17.99;37.03;99563.97;5134422;27;19938;-71
2021/05/10 05:05:33;;;;;;;;;;;;;;;18.02;37.12;99566.44;5132931;27;20398;-72
2021/05/10 05:08:01;;;;;;;;;;;;;;;18.05;37.01;99558.59;5135804;27;19923;-72
2021/05/10 05:10:29;;;;;;;;;;;;;;;18.12;36.92;99564.41;5135312;27;19924;-74
2021/05/10 05:12:58;;;;;;;;;;;;;;;18.18;36.89;99565.06;5128686;27;19953;-72
2021/05/10 05:15:26;;;;;;;;;;;;;;;18.25;36.63;99566.53;5132307;27;19923;-71
2021/05/10 05:17:57;;;;;;;;;;;;;;;18.36;36.57;99574.75;5113933;28;19930;-71
2021/05/10 05:20:36;;;;;;;;;;;;;;;18.47;36.25;99571.84;5114741;28;19935;-73
2021/05/10 05:23:17;;;;;;;;;;;;;;;18.53;35.74;99572.47;5115561;28;19923;-71
2021/05/10 05:25:45;;;;;;;;;;;;;;;18.62;35.55;99572.16;5114814;28;20359;-72
2021/05/10 05:28:16;;;;;;;;;;;;;;;18.67;35.91;99572.84;5114968;28;19924;-72
2021/05/10 05:30:44;;;;;;;;;;;;;;;18.78;35.55;99574.19;5114841;28;19969;-73
2021/05/10 05:33:12;;;;;;;;;;;;;;;18.85;35.15;99591.19;5114906;28;19966;-72
2021/05/10 05:35:41;;;;;;;;;;;;;;;18.90;35.74;99592.72;5132058;27;20014;-73
2021/05/10 05:38:10;;;;;;;;;;;;;;;18.93;35.21;99592.59;5135313;27;19923;-73
2021/05/10 05:40:40;;;;;;;;;;;;;;;19.03;35.29;99587.94;5133995;27;19925;-71
2021/05/10 05:43:09;;;;;;;;;;;;;;;19.14;35.44;99606.50;5135244;27;20280;-71
2021/05/10 05:45:37;;;;;;;;;;;;;;;19.22;34.86;99591.53;5119205;27;20286;-71
2021/05/10 05:48:06;;;;;;;;;;;;;;;19.24;34.80;99574.22;5123785;27;19924;-72
2021/05/10 05:50:35;;;;;;;;;;;;;;;19.28;34.66;99583.53;5132861;27;19947;-71
2021/05/10 05:53:03;;;;;;;;;;;;;;;19.31;34.80;99588.63;5111157;28;20026;-72
2021/05/10 05:55:31;;;;;;;;;;;;;;;19.34;34.94;99584.16;5134659;27;19923;-70
2021/05/10 05:58:01;;;;;;;;;;;;;;;19.46;35.00;99579.47;5115966;28;19959;-71
2021/05/10 06:00:29;;;;;;;;;;;;;;;19.56;34.84;99584.19;5134627;28;19978;-71
2021/05/10 06:02:57;;;;;;;;;;;;;;;19.57;34.63;99585.91;5132467;28;19968;-73
2021/05/10 06:05:25;;;;;;;;;;;;;;;19.63;34.55;99580.47;5134767;28;19924;-71
2021/05/10 06:07:53;;;;;;;;;;;;;;;19.68;34.63;99588.91;5135061;28;19923;-73
2021/05/10 06:10:23;;;;;;;;;;;;;;;19.63;34.44;99580.47;5116578;28;19923;-71
2021/05/10 06:12:53;;;;;;;;;;;;;;;19.68;34.59;99583.72;5132547;28;19923;-70
2021/05/10 06:15:22;;;;;;;;;;;;;;;19.73;34.59;99581.81;5134794;28;20364;-70
2021/05/10 06:17:51;;;;;;;;;;;;;;;19.70;34.30;99578.50;5134417;28;20360;-73
2021/05/10 06:20:19;;;;;;;;;;;;;;;19.71;34.46;99578.44;5134513;28;20432;-72
2021/05/10 06:22:49;;;;;;;;;;;;;;;19.80;34.47;99583.25;5132696;28;19959;-71
2021/05/10 06:25:17;;;;;;;;;;;;;;;19.87;34.36;99584.69;5132942;28;19931;-70
2021/05/10 06:27:45;;;;;;;;;;;;;;;19.98;34.35;99590.31;5134704;28;20399;-71
2021/05/10 06:30:13;;;;;;;;;;;;;;;20.05;33.88;99589.16;5133588;28;19928;-70
2021/05/10 06:32:43;;;;;;;;;;;;;;;20.13;34.21;99590.56;5132261;28;19928;-72
2021/05/10 06:35:12;;;;;;;;;;;;;;;20.13;33.96;99591.41;5116650;28;20372;-70
2021/05/10 06:37:40;;;;;;;;;;;;;;;20.08;34.12;99594.19;5134638;28;19955;-71
2021/05/10 06:40:08;;;;;;;;;;;;;;;20.15;33.79;99591.34;5134397;28;19934;-72
2021/05/10 06:42:37;;;;;;;;;;;;;;;20.19;34.19;99590.31;5126793;28;20013;-73
2021/05/10 06:45:08;;;;;;;;;;;;;;;20.27;33.67;99588.28;5120105;28;19928;-72
2021/05/10 06:47:38;;;;;;;;;;;;;;;20.27;33.49;99585.69;5130390;28;19966;-71
2021/05/10 06:50:09;;;;;;;;;;;;;;;20.28;33.55;99579.59;5117923;28;19923;-72
2021/05/10 06:52:37;;;;;;;;;;;;;;;20.26;33.73;99586.59;5098492;28;19950;-73
2021/05/10 06:55:06;;;;;;;;;;;;;;;20.24;33.69;99575.44;5117498;28;19924;-70
2021/05/10 06:57:34;;;;;;;;;;;;;;;20.27;33.92;99571.00;5123840;27;19946;-71
2021/05/10 07:00:04;;;;;;;;;;;;;;;20.32;33.76;99575.97;5117287;28;20280;-70
2021/05/10 07:02:36;;;;;;;;;;;;;;;20.36;33.93;99569.75;5133741;27;19962;-71
2021/05/10 07:05:05;;;;;;;;;;;;;;;20.39;33.82;99567.03;5137943;27;19991;-70
2021/05/10 07:07:36;;;;;;;;;;;;;;;20.37;33.83;99553.31;5137499;27;20288;-72
2021/05/10 07:10:05;;;;;;;;;;;;;;;20.47;33.85;99549.38;5119008;27;19978;-71
2021/05/10 07:12:36;;;;;;;;;;;;;;;20.65;33.66;99553.78;5117509;28;19930;-71
2021/05/10 07:15:04;;;;;;;;;;;;;;;20.75;33.41;99544.69;5117700;28;20379;-73
2021/05/10 07:17:35;;;;;;;;;;;;;;;20.83;33.42;99532.22;5116959;27;20373;-71
2021/05/10 07:20:05;;;;;;;;;;;;;;;20.90;33.34;99544.00;5116504;27;20036;-70
2021/05/10 07:22:33;;;;;;;;;;;;;;;21.07;33.26;99536.31;5116537;27;19964;-74
2021/05/10 07:25:02;;;;;;;;;;;;;;;21.26;32.71;99551.91;5116703;27;19924;-73
2021/05/10 07:27:31;;;;;;;;;;;;;;;21.25;31.84;99525.13;5116987;28;19928;-72
2021/05/10 07:29:59;;;;;;;;;;;;;;;21.30;31.92;99538.72;5116986;28;19947;-73
2021/05/10 07:32:27;;;;;;;;;;;;;;;21.41;32.20;99548.59;5116834;28;19969;-70
2021/05/10 07:34:56;;;;;;;;;;;;;;;21.30;32.05;99543.91;5121660;27;19927;-71
2021/05/10 07:37:24;;;;;;;;;;;;;;;21.20;32.74;99541.81;5137122;27;19927;-72
2021/05/10 07:39:52;;;;;;;;;;;;;;;21.23;32.64;99542.53;5137749;27;19930;-71
2021/05/10 07:42:21;;;;;;;;;;;;;;;21.25;32.90;99556.28;5137322;27;19930;-72
2021/05/10 07:44:50;;;;;;;;;;;;;;;21.20;32.29;99550.44;5131497;27;19923;-70
2021/05/10 07:47:19;;;;;;;;;;;;;;;21.21;31.99;99569.47;5116791;28;19928;-73
2021/05/10 07:49:47;;;;;;;;;;;;;;;21.26;32.39;99552.75;5118330;27;19923;-71
2021/05/10 07:52:15;;;;;;;;;;;;;;;21.28;32.08;99558.69;5116273;28;19924;-73
2021/05/10 07:54:43;;;;;;;;;;;;;;;21.36;32.35;99563.53;5116670;28;19977;-71
2021/05/10 07:57:11;;;;;;;;;;;;;;;21.48;32.68;99554.34;5116442;28;19963;-71
2021/05/10 07:59:45;;;;;;;;;;;;;;;21.50;31.59;99560.31;5116016;28;19930;-72
2021/05/10 08:02:13;;;;;;;;;;;;;;;21.57;32.43;99562.53;5116422;28;19923;-72
2021/05/10 08:04:41;;;;;;;;;;;;;;;21.69;32.86;99558.53;5097182;28;19923;-74
2021/05/10 08:07:12;;;;;;;;;;;;;;;21.76;33.30;99552.13;5116262;28;20418;-71
2021/05/10 08:09:40;;;;;;;;;;;;;;;21.93;33.57;99557.38;5115182;27;19946;-73
2021/05/10 08:12:08;;;;;;;;;;;;;;;22.01;32.23;99563.03;5116276;28;19959;-71
2021/05/10 08:14:36;;;;;;;;;;;;;;;22.07;33.05;99565.34;5116164;28;19923;-71
2021/05/10 08:17:06;;;;;;;;;;;;;;;22.00;33.66;99553.56;5116131;28;19923;-71
2021/05/10 08:19:35;;;;;;;;;;;;;;;21.98;32.61;99552.78;5126147;27;19927;-72
2021/05/10 08:22:05;;;;;;;;;;;;;;;21.97;31.79;99557.16;5136559;27;20392;-70
2021/05/10 08:24:34;;;;;;;;;;;;;;;22.16;33.47;99546.69;5136344;27;19924;-71
2021/05/10 08:27:02;;;;;;;;;;;;;;;22.29;33.18;99550.31;5136601;27;19924;-71
2021/05/10 08:29:32;;;;;;;;;;;;;;;22.50;31.77;99546.66;5124520;27;19955;-72
2021/05/10 08:32:03;;;;;;;;;;;;;;;22.70;31.64;99560.44;5130502;27;19927;-70
2021/05/10 08:34:35;;;;;;;;;;;;;;;22.86;31.33;99553.50;5136373;27;19935;-71
2021/05/10 08:37:04;;;;;;;;;;;;;;;22.99;30.75;99549.31;5136768;27;20372;-71
2021/05/10 08:39:35;;;;;;;;;;;;;;;23.15;31.33;99550.19;5124489;27;20377;-71
2021/05/10 08:42:04;;;;;;;;;;;;;;;23.26;31.39;99542.63;5115795;28;19924;-72
2021/05/10 08:44:32;;;;;;;;;;;;;;;23.34;30.85;99558.69;5115655;28;19934;-71
2021/05/10 08:47:03;;;;;;;;;;;;;;;23.33;30.08;99549.16;5115538;28;19930;-71
2021/05/10 08:49:31;;;;;;;;;;;;;;;23.38;30.21;99549.78;5097081;28;19931;-73
2021/05/10 08:52:00;;;;;;;;;;;;;;;23.42;30.40;99553.91;5115813;28;20365;-71
2021/05/10 08:54:31;;;;;;;;;;;;;;;23.42;30.07;99543.47;5115331;28;19923;-72
2021/05/10 08:57:02;;;;;;;;;;;;;;;23.46;30.25;99533.75;5115550;28;19924;-71
2021/05/10 08:59:33;;;;;;;;;;;;;;;23.52;29.86;99529.03;5115078;27;20389;-72
2021/05/10 09:02:13;;;;;;;;;;;;;;;23.50;30.65;99519.59;5115202;28;20022;-72
2021/05/10 09:04:42;;;;;;;;;;;;;;;23.55;30.06;99518.44;5096880;28;20374;-71
2021/05/10 09:07:18;;;;;;;;;;;;;;;23.51;28.82;99496.09;5115337;28;20368;-72
2021/05/10 09:09:53;;;;;;;;;;;;;;;23.39;28.83;99502.00;5114431;27;20356;-72
2021/05/10 09:12:23;;;;;;;;;;;;;;;23.25;29.34;99492.28;5115075;28;20000;-71
2021/05/10 09:14:52;;;;;;;;;;;;;;;23.12;29.49;99482.63;5115555;28;19985;-71
2021/05/10 09:17:22;;;;;;;;;;;;;;;23.13;29.97;99473.91;5115176;28;19923;-73
2021/05/10 09:19:56;;;;;;;;;;;;;;;23.17;29.73;99485.81;5114749;28;19946;-71
2021/05/10 09:22:26;;;;;;;;;;;;;;;23.16;29.74;99477.16;5114956;28;19939;-71
2021/05/10 09:24:55;;;;;;;;;;;;;;;23.37;29.85;99485.56;5114707;28;19984;-72
2021/05/10 09:27:27;;;;;;;;;;;;;;;23.52;29.83;99482.13;5114995;28;20370;-73
2021/05/10 09:30:06;;;;;;;;;;;;;;;23.65;29.34;99472.69;5114366;28;19946;-71
2021/05/10 09:32:37;;;;;;;;;;;;;;;23.66;29.53;99471.75;5114768;28;19978;-70
2021/05/10 09:35:16;;;;;;;;;;;;;;;23.78;29.27;99473.63;5114822;28;19924;-73
2021/05/10 09:37:53;;;;;;;;;;;;;;;23.88;28.86;99466.97;5114906;28;20384;-70
2021/05/10 09:40:22;;;;;;;;;;;;;;;23.91;29.42;99469.41;5114437;28;19989;-71
2021/05/10 09:43:06;;;;;;;;;;;;;;;23.99;28.98;99451.53;5114651;28;19924;-73
2021/05/10 09:45:39;;;;;;;;;;;;;;;24.03;29.18;99462.63;5114561;28;20327;-70
2021/05/10 09:48:09;;;;;;;;;;;;;;;24.23;29.62;99461.47;5114722;28;19993;-70
2021/05/10 09:50:39;;;;;;;;;;;;;;;24.28;29.62;99459.44;5114265;28;19924;-72
2021/05/10 09:53:11;;;;;;;;;;;;;;;24.29;29.03;99453.28;5114699;28;19931;-72
2021/05/10 09:55:46;;;;;;;;;;;;;;;24.21;29.58;99450.31;5114660;28;19923;-73
2021/05/10 09:58:14;;;;;;;;;;;;;;;24.20;29.53;99464.25;5114629;28;19931;-73
2021/05/10 10:00:42;;;;;;;;;;;;;;;24.16;29.43;99452.34;5114150;28;19924;-74
2021/05/10 10:03:21;;;;;;;;;;;;;;;24.14;29.30;99451.59;5114508;28;19930;-70
2021/05/10 10:05:53;;;;;;;;;;;;;;;24.22;29.37;99457.19;5114450;28;20425;-73
2021/05/10 10:08:23;;;;;;;;;;;;;;;24.41;29.17;99455.97;5114698;28;19934;-72
2021/05/10 10:10:51;;;;;;;;;;;;;;;24.59;29.36;99447.00;5113635;28;19962;-72
2021/05/10 10:13:19;;;;;;;;;;;;;;;24.60;29.04;99455.69;5114236;28;19967;-73
2021/05/10 10:15:48;;;;;;;;;;;;;;;24.67;29.10;99464.81;5114278;28;20360;-71
2021/05/10 10:18:17;;;;;;;;;;;;;;;24.77;29.30;99471.19;5114168;28;20270;-71
2021/05/10 10:20:45;;;;;;;;;;;;;;;24.86;29.41;99465.38;5113734;28;19973;-74
2021/05/10 10:23:14;;;;;;;;;;;;;;;24.71;29.12;99457.66;5114239;28;20010;-71
2021/05/10 10:25:43;;;;;;;;;;;;;;;24.65;29.81;99451.03;5114012;28;19923;-72
2021/05/10 10:28:17;;;;;;;;;;;;;;;24.89;30.04;99441.69;5115814;28;20337;-71
2021/05/10 10:30:51;;;;;;;;;;;;;;;25.09;29.62;99441.28;5125404;27;20010;-73
2021/05/10 10:33:28;;;;;;;;;;;;;;;25.09;30.40;99446.50;5133577;27;19931;-72
2021/05/10 10:35:57;;;;;;;;;;;;;;;25.02;30.39;99453.06;5100271;28;19931;-73
2021/05/10 10:38:29;;;;;;;;;;;;;;;25.15;30.36;99456.56;5118034;28;20455;-72
2021/05/10 10:41:08;;;;;;;;;;;;;;;25.13;30.28;99447.97;5117458;28;19923;-73
2021/05/10 10:43:37;;;;;;;;;;;;;;;25.07;30.37;99458.84;5117976;28;19957;-72
2021/05/10 10:46:16;;;;;;;;;;;;;;;25.10;30.91;99453.41;5082913;28;20319;-73
2021/05/10 10:48:48;;;;;;;;;;;;;;;25.18;30.26;99448.53;5118940;28;19978;-72
2021/05/10 10:51:20;;;;;;;;;;;;;;;25.11;30.25;99447.25;5117648;28;19924;-73
2021/05/10 10:53:53;;;;;;;;;;;;;;;25.27;30.79;99434.88;5099705;28;20284;-71
2021/05/10 10:56:32;;;;;;;;;;;;;;;25.36;30.23;99432.59;5117878;28;19924;-74
2021/05/10 10:59:22;;;;;;;;;;;;;;;25.42;30.17;99442.66;5117560;28;19924;-73
2021/05/10 11:01:50;;;;;;;;;;;;;;;25.30;30.58;99439.91;5117309;28;19962;-74
2021/05/10 11:04:25;;;;;;;;;;;;;;;25.26;30.16;99442.81;5116991;27;19924;-73
2021/05/10 11:06:53;;;;;;;;;;;;;;;25.43;30.13;99436.50;5117732;28;20206;-72
2021/05/10 11:09:31;;;;;;;;;;;;;;;25.45;30.07;99434.66;5117484;28;20381;-72
2021/05/10 11:12:00;;;;;;;;;;;;;;;25.32;30.18;99431.94;5116568;27;19931;-72
2021/05/10 11:14:48;;;;;;;;;;;;;;;25.41;30.62;99435.75;5099188;28;19923;-72
2021/05/10 11:17:43;;;;;;;;;;;;;;;25.41;30.54;99451.44;5074260;28;19930;-73
2021/05/10 11:20:12;;;;;;;;;;;;;;;25.25;30.39;99441.97;5073963;28;19960;-73
2021/05/10 11:22:47;;;;;;;;;;;;;;;25.23;30.87;99446.47;5074441;28;19932;-72
2021/05/10 11:25:26;;;;;;;;;;;;;;;25.31;29.85;99443.38;5074588;28;19924;-74
2021/05/10 11:28:20;;;;;;;;;;;;;;;25.37;29.90;99449.94;5074427;28;20007;-72
2021/05/10 11:31:17;;;;;;;;;;;;;;;25.65;30.01;99442.03;5077580;28;19947;-75
2021/05/10 11:33:56;;;;;;;;;;;;;;;25.77;30.53;99438.59;5034525;28;20026;-74
2021/05/10 11:36:26;;;;;;;;;;;;;;;25.84;30.92;99445.09;5034419;28;19932;-72
2021/05/10 11:38:55;;;;;;;;;;;;;;;25.78;30.69;99435.03;5034279;28;19933;-73
2021/05/10 11:41:27;;;;;;;;;;;;;;;25.52;29.80;99433.31;5032898;28;19979;-73
2021/05/10 11:43:58;;;;;;;;;;;;;;;25.55;30.38;99438.34;5033749;28;19925;-73
2021/05/10 11:46:32;;;;;;;;;;;;;;;25.64;30.95;99442.94;5034056;28;20467;-73
2021/05/10 11:49:01;;;;;;;;;;;;;;;25.75;31.41;99424.75;5068501;28;19986;-71
2021/05/10 11:51:36;;;;;;;;;;;;;;;25.80;31.31;99430.53;5093965;27;19934;-71
2021/05/10 11:54:06;;;;;;;;;;;;;;;25.81;30.81;99424.38;5137417;27;19965;-72
2021/05/10 11:56:40;;;;;;;;;;;;;;;25.80;31.27;99420.06;5137077;27;19924;-74
2021/05/10 12:02:01;;;;;;;;;;;;;;;25.96;30.46;99420.72;5123668;27;19930;-73
2021/05/10 12:04:36;;;;;;;;;;;;;;;25.92;30.69;99419.25;5116670;28;20369;-71
2021/05/10 12:07:06;;;;;;;;;;;;;;;25.84;31.80;99413.72;5116678;27;19924;-73
2021/05/10 12:09:36;;;;;;;;;;;;;;;25.65;32.51;99414.09;5121874;27;19951;-72
2021/05/10 12:12:06;;;;;;;;;;;;;;;25.68;33.36;99418.28;5115274;27;19924;-70
2021/05/10 12:14:37;;;;;;;;;;;;;;;25.91;32.13;99421.00;5115953;28;19993;-71
2021/05/10 12:17:06;;;;;;;;;;;;;;;26.10;31.71;99420.63;5116301;28;19924;-71
2021/05/10 12:19:45;;;;;;;;;;;;;;;26.24;31.53;99407.47;5115958;28;20004;-72
2021/05/10 12:22:18;;;;;;;;;;;;;;;26.30;31.21;99408.81;5115841;27;19930;-71
2021/05/10 12:24:56;;;;;;;;;;;;;;;26.42;31.57;99419.25;5116039;28;19973;-73
2021/05/10 12:27:25;;;;;;;;;;;;;;;26.39;31.55;99410.78;5115950;28;19930;-72
2021/05/10 12:29:53;;;;;;;;;;;;;;;26.35;31.55;99409.31;5115457;27;20377;-73
2021/05/10 12:32:21;;;;;;;;;;;;;;;26.31;30.97;99402.63;5115878;28;19923;-72
2021/05/10 12:34:50;;;;;;;;;;;;;;;26.31;31.55;99403.47;5115770;28;19928;-71
2021/05/10 12:37:19;;;;;;;;;;;;;;;26.44;31.62;99404.28;5097583;28;19953;-72
2021/05/10 12:39:48;;;;;;;;;;;;;;;26.29;31.02;99405.34;5115142;27;19931;-72
2021/05/10 12:42:17;;;;;;;;;;;;;;;26.26;31.08;99404.72;5121608;27;19923;-73
2021/05/10 12:44:56;;;;;;;;;;;;;;;26.17;31.57;99380.03;5136321;27;19923;-73
2021/05/10 12:47:34;;;;;;;;;;;;;;;26.19;31.84;99388.63;5135819;27;19923;-70
2021/05/10 12:50:02;;;;;;;;;;;;;;;26.21;31.59;99402.44;5129629;27;19924;-73
2021/05/10 12:52:44;;;;;;;;;;;;;;;26.29;32.36;99400.13;5115025;28;19924;-72
2021/05/10 12:55:21;;;;;;;;;;;;;;;26.42;32.59;99395.69;5115269;28;19928;-72
2021/05/10 12:57:49;;;;;;;;;;;;;;;26.54;32.43;99384.34;5115368;28;19987;-71
2021/05/10 13:00:27;;;;;;;;;;;;;;;26.44;31.79;99388.56;5120441;27;20281;-71
2021/05/10 13:02:59;;;;;;;;;;;;;;;26.42;31.54;99389.63;5117520;27;19947;-74
2021/05/10 13:05:48;;;;;;;;;;;;;;;26.39;33.29;99380.22;5135855;27;20373;-73
2021/05/10 13:08:17;;;;;;;;;;;;;;;26.61;33.22;99392.59;5124588;27;19935;-71
2021/05/10 13:10:54;;;;;;;;;;;;;;;26.60;33.29;99385.72;5001260;27;19949;-71
2021/05/10 13:13:36;;;;;;;;;;;;;;;26.59;33.85;99392.72;5115155;28;20010;-71
2021/05/10 13:16:18;;;;;;;;;;;;;;;26.49;34.31;99381.22;5115182;28;19931;-72